Aeroporto :
LOGIN :

Iscrizione | Disclaimer

   EN    FR    IT 

 










Sommario :    VFR   VFR Marginale   IFR   IFR Intensivo   IFR Molto Intensivo
Visibilità : 
Base nubi : 
>= 8 km
>= 3000ft
5 / 8 km
1000 / 3000 ft
1500m / 5 km
500 / 1000 ft
800 / 1500m
200 / 500 ft
< 800m
< 200 ft
Simboli :   Temporali  Nebbia  Neve Forte  Precipitazioni Forti  Vento > 20 kt
SIGMETs :   Varie  Temporali  Ghiacco  Turbolenza  Onda orograficha  Ceneri Vulcaniche







- Altitudine del aeroporto : 38 ft
- Codice IATA : ADX


EGQL - RAF Leuchars

ULTIMO METAR :
  • 221150Z 09012KT 6000 HZ SKC 14/09 Q1007 WHT

METARs OBSOLETI :
  • 221050Z 10010KT 6000 HZ SKC 13/08 Q1008 WHT
  • 220950Z 09007KT 8000 HZ SKC 13/08 Q1008 BLU

TAF AMD TAF EGQL
Valido dal 22 a 12 ore il 22 a 21 ore UTC


221201Z 2212/2221 10010KT 9000 HZ FEW040
PROB30
TEMPO 2212/2219 6000
PROB30
TEMPO 2219/2221 4000 BR SCT007
Nessun NOTAM noto per questo aeroporto.
1 SIGMET conosciuto per la FIR Scottish (EGPX) :
 
Forte onda orograficha
EGPX SIGMET 01 VALID 221125/221525 EGRR
EGPX SCOTTISH FIR SEV MTW OBS WI N5634 W00114 - N5617 W00808 - N5823 W00736 - N6100 W00644 - N6100 W00028 - N5634 W00114 FL040/100 STNR NC=



MetMap, La meteo Aeronautica in un colpo d'occhio ! - Copyright ORBIFLY Dicembre 2007 - Disclaimer

ORBIFLY MET'MAP TEAM :

Programmazione e sviluppo : Alexandra Zaïnal
Concezione e sviluppo : Baudouin d'Aumeries
Co-Programmazione e sviluppo : Marc-Olivier Méhu
Supporto tecnico e logistico : Manuel Goepfert
Aiuto per la traduzione : Arnaldo La Scala

Contatto : metmap@orbifly.com




FONTI E CREDITI :

   NOAA